Airfield :
LOGIN :

Register | Disclaimer

   EN    FR    IT 

 










Legend :    VFR   Marginal VFR   IFR   Intensive IFR   Very Intensive IFR
Visi :
Ceiling :
>= 8 km
>= 3000ft
5 to 8 km
1000 to 3000 ft
1500m to 5 km
500 to 1000 ft
800 to 1500m
200 to 500 ft
< 800m
< 200 ft
Symbols :   Thunderstorms  Fog  Heavy snow  Heavy precipitations  Wind > 20 kt
SIGMETs :     Misc.  Thunderstorms  Icing  Turbulence  Mountain Waves  Volcanic Ashes







- Airport Elevation : 392 ft
- IATA code : CDG
- Download approach charts


LFPG - Paris-Aeroport Charles De Gaulle

CURRENT METAR :
  • 212200Z 02005KT 010V130 CAVOK 17/12 Q1012 NOSIG

EXPIRED METARs :
  • 212130Z 01005KT 350V100 CAVOK 17/12 Q1012 NOSIG
  • 212100Z 02006KT CAVOK 17/12 Q1012 NOSIG
  • 212030Z 01006KT 350V130 CAVOK 18/12 Q1012 NOSIG
  • 212000Z 36004KT 280V010 9999 FEW046 BKN200 20/11 Q1011 NOSIG
  • 211930Z 34003KT 9999 FEW046TCU SCT200 20/11 Q1011 NOSIG

TAF TAF LFPG
Valid from the 21 at 18:00 until the 23 at 00:00 UTC


211700Z 2118/2224 04003KT 9999 SCT040
PROB40
TEMPO 2118/2120 4000 SHRA SCT040TCU
PROB30
TEMPO 2118/2120 2000 TSRA SCT030CB
PROB30
TEMPO 2202/2206 3000 BR
TEMPO 2212/2220 4000 SHRA SCT040TCU
PROB40
TEMPO 2212/2220 2000 TSRA SCT030CB TX24/2215Z TN13/2206Z
ATIS : +33 1 48 62 10 92
No reported NOTAMs for that airfield.



MET'MAP, your aeronautical weather chart ! - Copyright ORBIFLY December 2007 - Disclaimer

ORBIFLY MET'MAP TEAM :

Programming & Development : Alexandra Zaïnal
Concept & Development : Baudouin d'Aumeries
Co-Development & Prog : Marc-Olivier Méhu
Technical & hardware support : Manuel Goepfert

Contact : metmap@orbifly.com




SOURCES & CREDITS :

   NOAA